Time;durP1;ratioP1;P1;durP2;ratioP2;P2;SDS_P1;SDS_P2;PMS_P1;PMS_P2;Temp;Humidity;BMP_temperature;BMP_pressure;BME280_temperature;BME280_humidity;BME280_pressure;Samples;Min_cycle;Max_cycle;Signal;HPM_P1;HPM_P2
2023/05/04 00:02:23;;;;;;;9.50;6.20;;;;;;;9.05;83.01;102112.78;4987361;28;20022;-64
2023/05/04 00:04:50;;;;;;;11.32;7.22;;;;;;;9.04;82.54;102106.72;4987864;28;20024;-64
2023/05/04 00:07:16;;;;;;;9.13;7.30;;;;;;;9.04;82.19;102105.81;4976055;28;20086;-64
2023/05/04 00:09:41;;;;;;;7.80;5.93;;;;;;;9.03;82.77;102102.31;4981950;28;20026;-64
2023/05/04 00:12:07;;;;;;;9.20;6.57;;;;;;;9.02;83.27;102103.13;4980618;28;20031;-65
2023/05/04 00:14:32;;;;;;;8.32;7.03;;;;;;;9.00;83.64;102094.41;4974596;28;20054;-64
2023/05/04 00:16:57;;;;;;;6.78;5.82;;;;;;;8.96;83.15;102097.63;4987898;28;20026;-64
2023/05/04 00:19:23;;;;;;;6.88;6.18;;;;;;;8.92;83.50;102091.38;4969600;28;20023;-64
2023/05/04 00:21:48;;;;;;;10.18;6.45;;;;;;;8.91;83.02;102089.56;4969002;28;20424;-63
2023/05/04 00:24:13;;;;;;;7.97;6.85;;;;;;;8.82;84.02;102082.16;4974243;28;20038;-63
2023/05/04 00:26:38;;;;;;;7.80;6.47;;;;;;;8.77;84.12;102081.91;4987683;28;20049;-64
2023/05/04 00:29:04;;;;;;;8.80;6.63;;;;;;;8.75;84.14;102073.16;4969546;28;20026;-64
2023/05/04 00:31:29;;;;;;;7.63;6.65;;;;;;;8.69;84.30;102077.97;4968516;28;20134;-64
2023/05/04 00:33:57;;;;;;;7.53;6.20;;;;;;;8.65;84.16;102066.53;4968703;28;20034;-64
2023/05/04 00:36:23;;;;;;;7.50;5.38;;;;;;;8.64;84.85;102061.28;4968132;28;20109;-64
2023/05/04 00:38:50;;;;;;;8.35;5.75;;;;;;;8.60;84.27;102056.75;4968637;28;20026;-63
2023/05/04 00:41:16;;;;;;;7.80;6.25;;;;;;;8.57;84.68;102056.56;4968460;28;20019;-64
2023/05/04 00:43:41;;;;;;;6.78;5.28;;;;;;;8.52;85.12;102053.69;4968967;28;20019;-65
2023/05/04 00:46:09;;;;;;;8.70;5.93;;;;;;;8.47;84.83;102057.69;4981447;28;20038;-64
2023/05/04 00:48:34;;;;;;;8.75;5.65;;;;;;;8.49;85.01;102064.69;4988138;28;20077;-64
2023/05/04 00:51:00;;;;;;;7.68;5.60;;;;;;;8.52;84.85;102067.50;4974132;28;20427;-65
2023/05/04 00:53:25;;;;;;;9.05;5.93;;;;;;;8.48;86.21;102059.44;4968892;28;20027;-64
2023/05/04 00:55:50;;;;;;;7.63;6.03;;;;;;;8.41;85.37;102050.44;4984512;28;20019;-64
2023/05/04 00:58:16;;;;;;;9.02;6.18;;;;;;;8.39;86.49;102047.78;4987603;28;20386;-65
2023/05/04 01:00:41;;;;;;;6.63;5.72;;;;;;;8.36;86.75;102052.75;4989031;28;20023;-64
2023/05/04 01:03:08;;;;;;;8.48;5.30;;;;;;;8.38;86.17;102048.56;4990860;28;20371;-65
2023/05/04 01:05:37;;;;;;;7.28;5.82;;;;;;;8.36;86.69;102052.75;4991008;28;20076;-64
2023/05/04 01:08:15;;;;;;;6.53;5.78;;;;;;;8.36;86.44;102047.59;4973363;28;20519;-65
2023/05/04 01:11:02;;;;;;;7.38;5.72;;;;;;;8.38;85.85;102056.31;4984722;28;20029;-65
2023/05/04 01:13:29;;;;;;;6.35;5.75;;;;;;;8.38;85.82;102048.56;4971631;28;20031;-64
2023/05/04 01:15:55;;;;;;;6.88;6.22;;;;;;;8.38;86.27;102042.50;4971650;28;20497;-64
2023/05/04 01:18:22;;;;;;;7.35;6.35;;;;;;;8.37;86.46;102041.63;4971732;28;20066;-65
2023/05/04 01:20:47;;;;;;;7.28;5.78;;;;;;;8.36;86.66;102036.34;4971855;28;20027;-65
2023/05/04 01:23:13;;;;;;;6.28;5.75;;;;;;;8.34;86.44;102036.28;4971755;28;20034;-63
2023/05/04 01:25:48;;;;;;;7.40;5.82;;;;;;;8.31;86.62;102033.47;4971471;28;20105;-63
2023/05/04 01:28:19;;;;;;;6.60;5.68;;;;;;;8.28;86.37;102023.88;4971686;28;20031;-64
2023/05/04 01:30:48;;;;;;;7.13;5.95;;;;;;;8.26;87.51;102024.56;4980713;28;20027;-64
2023/05/04 01:33:15;;;;;;;8.70;6.20;;;;;;;8.13;88.08;102023.81;4972839;28;20368;-64
2023/05/04 01:35:40;;;;;;;8.48;6.50;;;;;;;8.12;88.28;102022.06;4983367;28;20030;-65
2023/05/04 01:38:06;;;;;;;8.35;6.55;;;;;;;8.09;88.98;102027.03;4971575;28;20026;-64
2023/05/04 01:40:31;;;;;;;13.60;6.03;;;;;;;8.05;89.19;102030.22;4971462;28;20530;-64
2023/05/04 01:42:56;;;;;;;8.40;6.20;;;;;;;7.98;89.25;102033.22;4971882;28;20506;-64
2023/05/04 01:45:21;;;;;;;7.40;6.45;;;;;;;7.95;90.28;102033.03;4971882;28;20400;-64
2023/05/04 01:47:47;;;;;;;9.70;6.20;;;;;;;7.90;90.90;102027.56;4972097;28;20539;-65
2023/05/04 01:50:13;;;;;;;8.80;6.10;;;;;;;7.84;91.39;102019.47;4971415;28;20023;-65
2023/05/04 01:52:38;;;;;;;8.45;6.32;;;;;;;7.78;92.01;102025.13;4971385;28;20078;-64
2023/05/04 01:55:04;;;;;;;11.35;6.28;;;;;;;7.77;91.60;102028.50;4971073;28;20109;-65
2023/05/04 01:57:29;;;;;;;8.10;6.55;;;;;;;7.75;92.20;102030.09;4970664;28;20022;-64
2023/05/04 01:59:54;;;;;;;8.63;6.35;;;;;;;7.71;93.27;102026.44;4971309;28;20022;-64
2023/05/04 02:02:20;;;;;;;7.47;5.75;;;;;;;7.71;92.16;102025.53;4971385;28;20061;-64
2023/05/04 02:04:45;;;;;;;9.48;6.30;;;;;;;7.67;93.75;102033.09;4970937;28;20105;-64
2023/05/04 02:07:11;;;;;;;8.27;6.35;;;;;;;7.64;94.07;102030.31;4975096;28;20057;-65
2023/05/04 02:09:37;;;;;;;8.93;6.68;;;;;;;7.65;94.07;102034.69;4978538;28;20371;-64
2023/05/04 02:12:03;;;;;;;7.45;6.53;;;;;;;7.60;94.59;102022.28;4979568;28;20040;-65
2023/05/04 02:14:28;;;;;;;7.90;6.80;;;;;;;7.53;95.22;102024.47;4989360;28;20034;-64
2023/05/04 02:16:53;;;;;;;7.78;6.03;;;;;;;7.55;94.21;102030.63;4989866;28;20391;-64
2023/05/04 02:19:18;;;;;;;7.32;6.47;;;;;;;7.54;94.63;102026.25;4978205;28;20049;-65
2023/05/04 02:21:44;;;;;;;8.15;6.97;;;;;;;7.53;95.22;102023.56;4980928;28;20029;-65
2023/05/04 02:24:10;;;;;;;8.27;6.90;;;;;;;7.52;95.14;102032.13;4977778;28;20031;-64
2023/05/04 02:26:35;;;;;;;11.05;7.10;;;;;;;7.50;95.81;102023.38;4981094;28;20363;-65
2023/05/04 02:29:02;;;;;;;7.28;6.57;;;;;;;7.47;95.70;102018.00;4984661;28;20042;-64
2023/05/04 02:31:28;;;;;;;7.07;6.38;;;;;;;7.43;95.76;102010.09;4980658;28;20513;-64
2023/05/04 02:33:53;;;;;;;8.10;7.03;;;;;;;7.45;96.18;102010.19;4983873;28;20110;-65
2023/05/04 02:36:18;;;;;;;7.07;5.68;;;;;;;7.43;95.78;102012.66;4980928;28;20193;-64
2023/05/04 02:38:43;;;;;;;7.10;6.40;;;;;;;7.41;96.05;102014.25;4975647;28;20542;-65
2023/05/04 02:41:09;;;;;;;7.68;6.88;;;;;;;7.36;96.70;102005.34;4977415;28;20105;-64
2023/05/04 02:43:34;;;;;;;9.38;7.50;;;;;;;7.37;97.09;102007.13;4981895;28;20018;-64
2023/05/04 02:45:59;;;;;;;9.27;6.97;;;;;;;7.38;96.67;102006.31;4982339;28;20022;-64
2023/05/04 02:48:24;;;;;;;7.30;6.57;;;;;;;7.39;96.19;102005.56;4975922;28;20030;-64
2023/05/04 02:50:50;;;;;;;8.18;7.07;;;;;;;7.30;97.54;101999.81;4981512;28;20492;-64
2023/05/04 02:53:16;;;;;;;9.38;7.55;;;;;;;7.30;97.69;102008.41;4973357;28;20201;-64
2023/05/04 02:55:41;;;;;;;7.53;6.78;;;;;;;7.30;96.61;102002.38;4969911;28;20029;-64
2023/05/04 02:58:06;;;;;;;8.23;6.70;;;;;;;7.28;97.88;102003.97;4970046;28;20034;-64
2023/05/04 03:00:31;;;;;;;9.35;6.65;;;;;;;7.25;98.21;102002.06;4969868;28;20500;-64
2023/05/04 03:02:57;;;;;;;9.30;8.05;;;;;;;7.21;97.86;102000.09;4970394;28;20183;-64
2023/05/04 03:05:22;;;;;;;7.90;6.25;;;;;;;7.10;98.91;101996.81;4969387;28;20689;-64
2023/05/04 03:07:48;;;;;;;8.30;6.60;;;;;;;7.08;99.60;101996.72;4972465;28;20030;-64
2023/05/04 03:10:14;;;;;;;9.90;7.05;;;;;;;7.05;99.28;102001.66;4988884;28;20026;-64
2023/05/04 03:12:39;;;;;;;9.80;6.70;;;;;;;7.04;99.60;102004.16;4988726;28;20327;-64
2023/05/04 03:15:05;;;;;;;7.63;6.75;;;;;;;7.03;99.72;102004.94;4988343;28;20108;-64
2023/05/04 03:17:31;;;;;;;9.10;6.97;;;;;;;7.00;99.73;101999.59;4984160;28;20468;-64
2023/05/04 03:19:56;;;;;;;10.35;7.00;;;;;;;6.93;100.00;101999.19;4969732;28;20031;-64
2023/05/04 03:22:21;;;;;;;11.43;7.18;;;;;;;6.94;100.00;101994.94;4969486;28;21128;-64
2023/05/04 03:24:46;;;;;;;10.18;6.70;;;;;;;6.93;100.00;101996.59;4969641;28;20034;-64
2023/05/04 03:27:12;;;;;;;8.90;6.88;;;;;;;6.90;100.00;101986.09;4969898;28;20023;-64
2023/05/04 03:29:37;;;;;;;10.20;7.03;;;;;;;6.88;100.00;101985.13;4969033;28;20042;-64
2023/05/04 03:32:02;;;;;;;7.55;6.65;;;;;;;6.87;100.00;101987.59;4969678;28;20034;-65
2023/05/04 03:34:28;;;;;;;7.70;6.78;;;;;;;6.85;100.00;101984.91;4969714;28;20076;-64
2023/05/04 03:36:53;;;;;;;8.68;6.82;;;;;;;6.82;100.00;101977.88;4956770;28;20034;-64
2023/05/04 03:39:18;;;;;;;10.05;7.18;;;;;;;6.76;100.00;101977.47;4977781;28;20022;-64
2023/05/04 03:41:44;;;;;;;7.40;6.68;;;;;;;6.74;100.00;101976.47;4970250;28;20027;-64
2023/05/04 03:44:09;;;;;;;8.70;6.72;;;;;;;6.73;100.00;101973.00;4969693;28;20030;-64
2023/05/04 03:46:34;;;;;;;8.93;6.78;;;;;;;6.70;100.00;101964.19;4973685;28;20025;-64
2023/05/04 03:49:00;;;;;;;8.00;7.07;;;;;;;6.62;100.00;101963.66;4977639;28;20043;-64
2023/05/04 03:51:26;;;;;;;10.23;7.45;;;;;;;6.58;100.00;101967.72;4968885;28;20105;-64
2023/05/04 03:53:51;;;;;;;8.75;6.43;;;;;;;6.57;100.00;101962.47;4969044;28;20027;-65
2023/05/04 03:56:16;;;;;;;10.13;7.00;;;;;;;6.56;100.00;101969.31;4980684;28;20042;-64
2023/05/04 03:58:42;;;;;;;17.10;7.80;;;;;;;6.51;100.00;101968.13;4980071;28;20030;-65
2023/05/04 04:01:07;;;;;;;11.15;6.45;;;;;;;6.51;100.00;101959.50;4986383;28;20034;-65
2023/05/04 04:03:35;;;;;;;9.60;7.25;;;;;;;6.47;100.00;101967.03;4973734;28;20026;-64
2023/05/04 04:06:02;;;;;;;9.98;7.68;;;;;;;6.48;100.00;101966.22;4986658;28;20023;-64
2023/05/04 04:08:27;;;;;;;9.00;7.30;;;;;;;6.43;100.00;101965.03;4978425;28;20034;-64
2023/05/04 04:10:53;;;;;;;9.90;7.03;;;;;;;6.42;100.00;101973.53;4966638;28;20039;-64
2023/05/04 04:13:18;;;;;;;10.68;7.43;;;;;;;6.40;100.00;101974.22;4967751;28;20030;-64
2023/05/04 04:15:45;;;;;;;8.13;6.53;;;;;;;6.36;100.00;101967.97;4968514;28;20113;-64
2023/05/04 04:18:10;;;;;;;9.40;6.70;;;;;;;6.38;100.00;101965.50;4969513;28;20035;-64
2023/05/04 04:20:36;;;;;;;12.77;7.13;;;;;;;6.38;100.00;101975.78;4972203;28;20529;-65
2023/05/04 04:23:02;;;;;;;9.07;7.50;;;;;;;6.35;100.00;101966.19;4970655;28;20057;-64
2023/05/04 04:25:28;;;;;;;10.52;6.80;;;;;;;6.34;100.00;101965.28;4973357;28;20057;-64
2023/05/04 04:27:53;;;;;;;9.82;7.60;;;;;;;6.30;100.00;101950.41;4969859;28;20067;-64
2023/05/04 04:30:18;;;;;;;7.90;7.20;;;;;;;6.29;100.00;101955.47;4969541;28;20092;-64
2023/05/04 04:32:44;;;;;;;10.02;8.18;;;;;;;6.29;100.00;101956.38;4969130;28;20041;-64
2023/05/04 04:35:09;;;;;;;8.18;7.38;;;;;;;6.27;100.00;101951.91;4971097;28;20042;-64
2023/05/04 04:37:35;;;;;;;8.95;7.25;;;;;;;6.15;100.00;101955.44;4974103;28;20154;-64
2023/05/04 04:40:00;;;;;;;10.85;7.15;;;;;;;6.21;100.00;101942.06;4977502;28;20395;-64
2023/05/04 04:42:26;;;;;;;8.30;6.65;;;;;;;6.23;100.00;101943.97;4983128;28;20113;-64
2023/05/04 04:44:51;;;;;;;10.07;7.72;;;;;;;6.28;100.00;101938.25;4974466;28;20039;-65
2023/05/04 04:47:17;;;;;;;8.63;6.60;;;;;;;6.31;100.00;101949.66;4972596;28;20037;-65
2023/05/04 04:49:43;;;;;;;7.97;7.10;;;;;;;6.33;100.00;101947.19;4974864;28;20030;-64
2023/05/04 04:52:08;;;;;;;9.38;7.70;;;;;;;6.39;100.00;101950.16;4973431;28;20039;-64
2023/05/04 04:54:34;;;;;;;8.88;7.20;;;;;;;6.40;100.00;101946.81;4972566;28;20081;-65
2023/05/04 04:56:59;;;;;;;8.70;7.50;;;;;;;6.42;100.00;101949.47;4984861;28;20038;-64
2023/05/04 04:59:25;;;;;;;9.77;7.63;;;;;;;6.45;100.00;101947.09;4984905;28;20030;-64
2023/05/04 05:01:50;;;;;;;8.77;7.47;;;;;;;6.45;100.00;101948.00;4972031;28;20027;-64
2023/05/04 05:04:18;;;;;;;8.98;7.22;;;;;;;6.52;100.00;101948.38;4991260;28;20041;-64
2023/05/04 05:06:43;;;;;;;9.98;7.05;;;;;;;6.55;100.00;101946.03;4990583;28;20030;-64
2023/05/04 05:09:09;;;;;;;7.78;6.43;;;;;;;6.52;100.00;101940.66;4977602;28;20460;-64
2023/05/04 05:11:34;;;;;;;8.93;6.60;;;;;;;6.57;100.00;101947.91;4972161;28;20022;-64
2023/05/04 05:13:59;;;;;;;9.63;7.20;;;;;;;6.64;100.00;101949.19;4971151;28;20113;-64
2023/05/04 05:16:25;;;;;;;8.35;6.82;;;;;;;6.69;100.00;101947.81;4972016;28;20023;-65
2023/05/04 05:18:50;;;;;;;9.77;7.00;;;;;;;6.76;100.00;101953.38;4976673;28;20062;-64
2023/05/04 05:21:15;;;;;;;7.35;6.65;;;;;;;6.80;100.00;101950.22;4982014;28;20088;-64
2023/05/04 05:23:41;;;;;;;7.88;6.65;;;;;;;6.84;100.00;101953.09;4989942;28;20097;-64
2023/05/04 05:26:06;;;;;;;7.70;6.90;;;;;;;6.86;100.00;101960.91;4977670;28;20038;-65
2023/05/04 05:28:32;;;;;;;12.52;6.80;;;;;;;6.87;100.00;101957.56;4985948;28;20032;-64
2023/05/04 05:30:57;;;;;;;11.07;6.85;;;;;;;6.85;100.00;101956.56;4976335;28;20026;-64
2023/05/04 05:33:22;;;;;;;7.25;6.53;;;;;;;6.88;100.00;101956.75;4977613;28;20081;-65
2023/05/04 05:35:48;;;;;;;7.13;6.35;;;;;;;6.97;100.00;101969.34;4977890;28;20538;-64
2023/05/04 05:38:15;;;;;;;12.07;8.00;;;;;;;6.98;100.00;101960.81;4977247;28;20113;-64
2023/05/04 05:40:40;;;;;;;9.15;6.22;;;;;;;7.04;100.00;101960.31;4982768;28;20034;-64
2023/05/04 05:43:05;;;;;;;9.40;6.72;;;;;;;7.08;100.00;101958.06;4977502;28;20030;-65
2023/05/04 05:45:31;;;;;;;9.40;7.03;;;;;;;7.19;100.00;101965.59;4977136;28;20041;-64
2023/05/04 05:47:56;;;;;;;8.40;6.40;;;;;;;7.30;100.00;101963.69;4977422;28;20471;-65
2023/05/04 05:50:22;;;;;;;8.05;7.28;;;;;;;7.41;100.00;101952.34;4978542;28;20093;-65
2023/05/04 05:52:48;;;;;;;8.68;6.28;;;;;;;7.52;100.00;101954.75;4971135;28;20117;-64
2023/05/04 05:55:13;;;;;;;9.50;7.30;;;;;;;7.61;100.00;101950.13;4987839;28;20168;-64
2023/05/04 05:57:38;;;;;;;10.20;7.80;;;;;;;7.66;100.00;101951.31;4971285;28;20023;-65
2023/05/04 06:00:04;;;;;;;10.38;7.50;;;;;;;7.75;100.00;101942.38;4980828;28;20445;-66
2023/05/04 06:02:30;;;;;;;10.02;6.30;;;;;;;7.84;100.00;101957.53;4980284;28;20541;-65
2023/05/04 06:04:55;;;;;;;9.45;6.82;;;;;;;7.93;100.00;101945.19;4987040;28;20506;-65
2023/05/04 06:07:21;;;;;;;9.20;6.68;;;;;;;7.87;100.00;101940.53;4976455;28;20038;-65
2023/05/04 06:09:46;;;;;;;7.93;6.68;;;;;;;7.96;100.00;101936.72;4984215;28;20097;-65
2023/05/04 06:12:13;;;;;;;7.70;6.78;;;;;;;8.07;100.00;101934.78;4980958;28;20026;-64
2023/05/04 06:14:39;;;;;;;7.68;6.65;;;;;;;8.16;100.00;101938.81;4978368;28;20097;-65
2023/05/04 06:17:04;;;;;;;8.57;6.50;;;;;;;8.16;100.00;101923.31;4975806;28;20030;-64
2023/05/04 06:19:33;;;;;;;20.50;8.15;;;;;;;8.24;100.00;101922.91;4980329;28;20406;-65
2023/05/04 06:21:59;;;;;;;10.30;5.90;;;;;;;8.29;100.00;101921.47;4980551;28;20030;-64
2023/05/04 06:24:25;;;;;;;12.63;7.03;;;;;;;8.38;100.00;101919.41;4987203;28;20028;-65
2023/05/04 06:26:51;;;;;;;9.80;6.20;;;;;;;8.42;100.00;101917.88;4985002;28;20030;-65
2023/05/04 06:29:16;;;;;;;8.10;6.38;;;;;;;8.49;100.00;101914.00;4986950;28;20026;-65
2023/05/04 06:31:41;;;;;;;9.02;6.50;;;;;;;8.62;100.00;101907.84;4986246;28;20433;-65
2023/05/04 06:34:06;;;;;;;8.35;7.00;;;;;;;8.73;100.00;101905.88;4987144;28;20081;-65
2023/05/04 06:36:32;;;;;;;10.35;6.68;;;;;;;8.78;99.28;101904.44;4985388;28;20805;-65
2023/05/04 06:38:57;;;;;;;8.80;6.90;;;;;;;8.95;99.23;101895.06;4986626;28;20041;-64
2023/05/04 06:41:23;;;;;;;7.65;5.85;;;;;;;9.10;98.32;101895.00;4985476;28;20055;-66
2023/05/04 06:43:48;;;;;;;10.32;6.20;;;;;;;9.29;98.79;101903.78;4980494;28;20046;-65
2023/05/04 06:46:14;;;;;;;6.85;6.25;;;;;;;9.44;97.44;101895.06;4983571;28;20065;-65
2023/05/04 06:48:40;;;;;;;7.07;5.60;;;;;;;9.56;95.22;101900.91;4978720;28;20023;-65
2023/05/04 06:51:05;;;;;;;9.23;5.43;;;;;;;9.68;94.96;101899.75;4980798;28;20027;-64
2023/05/04 06:53:30;;;;;;;9.35;5.82;;;;;;;9.80;95.01;101894.34;4974868;28;20033;-65
2023/05/04 06:55:56;;;;;;;8.13;6.05;;;;;;;9.96;94.59;101901.22;4986694;28;20398;-65
2023/05/04 06:58:22;;;;;;;8.43;5.95;;;;;;;10.09;93.63;101898.44;4986004;28;20026;-65
2023/05/04 07:00:47;;;;;;;9.90;6.47;;;;;;;10.22;92.76;101896.47;4984688;28;20479;-64
2023/05/04 07:03:13;;;;;;;6.82;5.97;;;;;;;10.26;90.10;101894.91;4968352;28;20037;-65
2023/05/04 07:05:38;;;;;;;8.45;6.30;;;;;;;10.31;91.18;101893.44;4986189;28;20469;-65
2023/05/04 07:08:03;;;;;;;8.93;5.95;;;;;;;10.39;89.32;101891.25;4971335;28;20149;-64
2023/05/04 07:10:29;;;;;;;10.20;5.70;;;;;;;10.53;90.81;101890.25;4982466;28;20026;-65
2023/05/04 07:12:54;;;;;;;10.43;5.45;;;;;;;10.67;89.51;101884.84;4980239;28;20018;-65
2023/05/04 07:15:20;;;;;;;7.90;5.45;;;;;;;10.83;88.87;101883.00;4988952;28;20495;-64
2023/05/04 07:17:46;;;;;;;8.32;5.72;;;;;;;10.88;86.20;101872.00;4980384;28;20073;-65
2023/05/04 07:20:12;;;;;;;6.57;4.90;;;;;;;11.02;86.54;101872.69;4985299;28;20026;-65
2023/05/04 07:22:38;;;;;;;9.32;6.45;;;;;;;11.10;84.43;101879.94;4984322;28;20084;-65
2023/05/04 07:25:04;;;;;;;7.97;5.72;;;;;;;11.21;83.94;101870.03;4985109;28;20030;-65
2023/05/04 07:27:29;;;;;;;9.60;5.93;;;;;;;11.22;81.62;101866.63;4984912;28;20024;-65
2023/05/04 07:29:54;;;;;;;8.80;6.25;;;;;;;11.34;82.24;101861.09;4985319;28;20088;-65
2023/05/04 07:32:20;;;;;;;7.03;4.80;;;;;;;11.49;79.15;101867.00;4981406;28;20034;-64
2023/05/04 07:34:45;;;;;;;9.05;5.63;;;;;;;11.65;79.47;101857.28;4979690;28;20110;-65
2023/05/04 07:37:12;;;;;;;6.05;5.03;;;;;;;11.94;81.70;101857.66;4981441;28;20497;-64
2023/05/04 07:39:37;;;;;;;5.47;4.82;;;;;;;12.21;79.33;101853.59;4967636;28;20041;-64
2023/05/04 07:42:03;;;;;;;8.52;5.80;;;;;;;12.38;75.30;101864.66;4981723;28;20034;-65
2023/05/04 07:44:30;;;;;;;7.97;5.35;;;;;;;12.61;74.13;101860.41;4984998;28;20049;-65
2023/05/04 07:46:57;;;;;;;8.85;5.40;;;;;;;12.71;73.40;101859.06;4984993;28;20018;-65
2023/05/04 07:49:22;;;;;;;5.85;5.25;;;;;;;12.71;72.16;101859.06;4979785;28;20070;-65
2023/05/04 07:51:47;;;;;;;6.05;5.35;;;;;;;12.73;72.02;101856.53;4969462;28;20058;-65
2023/05/04 07:54:14;;;;;;;9.18;5.75;;;;;;;13.01;71.98;101860.19;4979135;28;20027;-65
2023/05/04 07:56:40;;;;;;;10.20;5.28;;;;;;;13.31;70.97;101858.69;4982250;28;20050;-65
2023/05/04 07:59:05;;;;;;;9.23;5.50;;;;;;;13.50;69.86;101860.25;4979741;28;20049;-65
2023/05/04 08:01:30;;;;;;;10.85;5.85;;;;;;;13.50;70.47;101854.16;4986901;28;20030;-65
2023/05/04 08:03:56;;;;;;;6.03;4.82;;;;;;;13.78;70.50;101849.97;4981607;28;20034;-65
2023/05/04 08:06:21;;;;;;;7.75;5.60;;;;;;;14.05;69.41;101854.31;4982410;28;20026;-65
2023/05/04 08:08:48;;;;;;;7.97;5.72;;;;;;;14.09;66.02;101851.00;4986556;28;20061;-64
2023/05/04 08:11:14;;;;;;;7.78;5.82;;;;;;;14.40;65.91;101856.34;4989708;28;20034;-64
2023/05/04 08:13:40;;;;;;;6.93;4.95;;;;;;;14.67;67.19;101842.41;4992237;28;20034;-64
2023/05/04 08:16:05;;;;;;;8.45;5.45;;;;;;;15.12;64.73;101853.34;4990096;28;20054;-66
2023/05/04 08:18:31;;;;;;;6.93;5.10;;;;;;;15.36;63.73;101841.84;4991479;28;20048;-64
2023/05/04 08:20:57;;;;;;;6.55;5.85;;;;;;;15.63;63.00;101839.94;4989894;28;20439;-65
2023/05/04 08:23:22;;;;;;;7.80;5.63;;;;;;;15.58;61.91;101840.69;4991640;28;20077;-65
2023/05/04 08:25:47;;;;;;;7.45;5.15;;;;;;;15.72;61.06;101835.81;4990691;28;20109;-64
2023/05/04 08:28:13;;;;;;;6.25;5.60;;;;;;;15.66;62.26;101833.06;4987452;28;20169;-67
2023/05/04 08:30:38;;;;;;;6.57;5.05;;;;;;;15.70;60.63;101831.41;4977493;28;20060;-65
2023/05/04 08:33:04;;;;;;;5.60;4.97;;;;;;;15.81;63.43;101824.72;4990377;28;20038;-65
2023/05/04 08:35:29;;;;;;;6.93;5.15;;;;;;;16.00;61.36;101827.84;4989943;28;20030;-65
2023/05/04 08:37:55;;;;;;;6.20;5.18;;;;;;;16.06;61.31;101830.59;4989986;28;20092;-65
2023/05/04 08:40:22;;;;;;;9.90;5.28;;;;;;;16.19;58.74;101825.72;4987953;28;20036;-65
2023/05/04 08:42:50;;;;;;;6.63;5.38;;;;;;;16.40;59.37;101822.72;4990018;28;20037;-65
2023/05/04 08:45:16;;;;;;;6.40;5.40;;;;;;;16.53;57.27;101821.25;4988810;28;20101;-65
2023/05/04 08:47:42;;;;;;;7.32;5.05;;;;;;;16.76;58.26;101817.38;4988066;28;20026;-65
2023/05/04 08:50:09;;;;;;;7.05;5.30;;;;;;;17.00;57.28;101814.41;4981343;28;20034;-64
2023/05/04 08:52:35;;;;;;;6.75;5.75;;;;;;;17.08;55.91;101803.19;4980984;28;20533;-65
2023/05/04 08:55:02;;;;;;;8.95;5.82;;;;;;;17.15;56.01;101795.53;4982583;28;20129;-65
2023/05/04 08:57:28;;;;;;;5.90;5.30;;;;;;;17.20;54.56;101787.75;4991082;28;20018;-64
2023/05/04 08:59:54;;;;;;;6.93;5.28;;;;;;;17.34;56.85;101781.94;4990657;28;20026;-65
2023/05/04 09:02:21;;;;;;;7.40;5.30;;;;;;;17.40;55.28;101779.41;4990093;28;20463;-65
2023/05/04 09:04:51;;;;;;;6.18;5.47;;;;;;;17.32;53.54;101783.63;4988353;28;20049;-65
2023/05/04 09:07:17;;;;;;;5.63;5.03;;;;;;;17.42;55.11;101777.69;4990305;28;20049;-66
2023/05/04 09:09:43;;;;;;;7.10;4.90;;;;;;;17.28;54.29;101769.59;4987805;28;20018;-66
2023/05/04 09:12:08;;;;;;;8.45;5.53;;;;;;;17.31;54.18;101769.63;4984608;28;20040;-65
2023/05/04 09:14:35;;;;;;;6.78;6.00;;;;;;;17.36;55.27;101767.13;4988457;28;20046;-65
2023/05/04 09:17:01;;;;;;;9.38;5.63;;;;;;;17.37;55.64;101768.88;4990408;28;20050;-65
2023/05/04 09:19:33;;;;;;;6.45;4.90;;;;;;;17.62;56.44;101764.06;4990493;28;20034;-65
2023/05/04 09:22:13;;;;;;;7.45;5.20;;;;;;;17.60;54.79;101771.91;4985359;28;20037;-65
2023/05/04 09:24:38;;;;;;;5.50;4.90;;;;;;;17.74;54.59;101777.38;4985820;28;20471;-65
2023/05/04 09:27:11;;;;;;;5.88;4.72;;;;;;;17.87;54.35;101773.25;4990058;28;20034;-65
2023/05/04 09:29:38;;;;;;;7.35;5.43;;;;;;;18.10;54.47;101771.81;4984266;28;20041;-66
2023/05/04 09:32:04;;;;;;;8.23;5.35;;;;;;;18.32;53.43;101764.31;4984873;28;20042;-66
2023/05/04 09:34:31;;;;;;;8.38;5.70;;;;;;;18.17;51.14;101767.59;4983766;28;20374;-62
2023/05/04 09:37:00;;;;;;;11.40;5.65;;;;;;;18.26;53.63;101769.47;4985684;28;20423;-65
2023/05/04 09:39:26;;;;;;;8.02;5.72;;;;;;;18.23;52.37;101768.56;4989776;28;20022;-63
2023/05/04 09:41:51;;;;;;;6.25;5.38;;;;;;;18.15;52.37;101754.44;4987100;28;20026;-63
2023/05/04 09:44:21;;;;;;;6.68;4.68;;;;;;;18.38;54.16;101753.91;4984666;28;20442;-63
2023/05/04 09:46:54;;;;;;;7.93;5.45;;;;;;;18.69;54.06;101741.19;4984717;28;20471;-63
2023/05/04 09:49:33;;;;;;;7.30;5.55;;;;;;;18.76;51.76;101741.28;4980199;28;20069;-65
2023/05/04 09:52:01;;;;;;;6.10;5.53;;;;;;;18.93;52.13;101747.59;4988715;28;20041;-63
2023/05/04 09:54:28;;;;;;;8.57;6.00;;;;;;;18.93;50.94;101744.97;4978566;28;20022;-64
2023/05/04 09:56:58;;;;;;;7.47;5.20;;;;;;;19.09;50.24;101737.25;4965191;28;20058;-65
2023/05/04 09:59:29;;;;;;;8.52;5.13;;;;;;;19.25;49.73;101740.09;4983868;28;20093;-63
2023/05/04 10:01:55;;;;;;;8.40;6.07;;;;;;;19.29;50.13;101741.88;4975612;28;20033;-63
2023/05/04 10:04:21;;;;;;;9.35;5.00;;;;;;;19.44;49.96;101739.41;4979911;28;20038;-63
2023/05/04 10:06:47;;;;;;;8.88;5.13;;;;;;;19.39;49.41;101735.81;4976227;28;20029;-65
2023/05/04 10:09:12;;;;;;;6.22;5.63;;;;;;;19.29;48.74;101731.34;4981357;28;20049;-64
2023/05/04 10:11:38;;;;;;;5.93;5.35;;;;;;;19.48;49.18;101726.28;4986132;28;20096;-66
2023/05/04 10:14:03;;;;;;;7.53;6.03;;;;;;;19.41;49.00;101720.97;4986569;28;20034;-63
2023/05/04 10:16:55;;;;;;;8.80;6.05;;;;;;;19.55;48.61;101707.94;4980522;28;20434;-64
2023/05/04 10:19:51;;;;;;;8.18;5.90;;;;;;;19.72;49.56;101708.94;4987036;28;20022;-66
2023/05/04 10:22:31;;;;;;;8.15;5.80;;;;;;;19.59;47.10;101692.22;4985020;28;20165;-66
2023/05/04 10:25:08;;;;;;;10.27;5.82;;;;;;;19.81;49.29;101687.97;4981763;28;20034;-63
2023/05/04 10:27:42;;;;;;;5.88;5.28;;;;;;;20.10;48.71;101684.69;4985707;28;20379;-63
2023/05/04 10:30:11;;;;;;;12.55;6.53;;;;;;;20.07;46.94;101671.53;4988088;28;20069;-63
2023/05/04 10:32:38;;;;;;;7.68;5.35;;;;;;;20.28;48.58;101676.00;4984209;28;20034;-64
2023/05/04 10:35:09;;;;;;;7.05;6.35;;;;;;;20.00;45.84;101662.66;4989293;28;20033;-64
2023/05/04 10:37:38;;;;;;;6.45;5.35;;;;;;;20.26;46.50;101655.81;4989005;28;20036;-63
2023/05/04 10:40:05;;;;;;;7.78;6.07;;;;;;;20.35;46.87;101658.50;4973573;28;20085;-64
2023/05/04 10:42:41;;;;;;;7.68;6.03;;;;;;;20.45;47.28;101655.91;4980676;28;20027;-64
2023/05/04 10:45:08;;;;;;;9.00;6.28;;;;;;;20.55;46.14;101657.69;4975809;28;20439;-64
2023/05/04 10:47:35;;;;;;;7.05;5.38;;;;;;;20.16;44.87;101647.88;4990043;28;20057;-63
2023/05/04 10:50:09;;;;;;;11.75;5.47;;;;;;;20.45;46.13;101629.56;4988674;28;20061;-64
2023/05/04 10:52:54;;;;;;;7.15;4.93;;;;;;;20.73;46.42;101632.28;4980263;28;20498;-64
2023/05/04 10:55:21;;;;;;;8.02;5.13;;;;;;;20.81;45.55;101625.28;4980758;28;20403;-64
2023/05/04 10:57:53;;;;;;;8.32;4.88;;;;;;;20.94;46.12;101604.22;4976857;28;20126;-64
2023/05/04 11:00:19;;;;;;;6.25;3.80;;;;;;;21.20;46.83;101595.47;4980849;28;20065;-64
2023/05/04 11:02:47;;;;;;;5.93;5.15;;;;;;;21.19;43.46;101599.00;4978865;28;20043;-64
2023/05/04 11:05:18;;;;;;;6.82;4.57;;;;;;;21.14;42.98;101598.13;4982423;28;20030;-64
2023/05/04 11:07:44;;;;;;;;;;;;;;;21.32;44.99;101589.28;4974583;28;20034;-64
2023/05/04 11:10:23;;;;;;;5.55;3.90;;;;;;;21.37;43.38;101592.81;4988224;28;20262;-64
2023/05/04 11:12:49;;;;;;;4.88;4.38;;;;;;;21.42;41.97;101579.63;4981761;28;20106;-64
2023/05/04 11:15:14;;;;;;;4.90;3.80;;;;;;;21.48;42.20;101584.88;4980117;28;20121;-64
2023/05/04 11:17:47;;;;;;;5.25;3.75;;;;;;;21.63;42.34;101583.09;4976444;28;20461;-63
2023/05/04 11:20:26;;;;;;;6.05;3.97;;;;;;;21.62;40.57;101576.97;4981052;28;20030;-64
2023/05/04 11:22:53;;;;;;;4.82;3.80;;;;;;;21.60;41.96;101582.22;4972723;28;20057;-64
2023/05/04 11:25:29;;;;;;;3.78;3.42;;;;;;;21.70;41.27;101577.81;4980886;28;20026;-63